createdAt,value
2019-03-04T00:01:16.616Z,3.70
2019-03-04T00:03:46.153Z,3.80
2019-03-04T00:06:15.651Z,3.40
2019-03-04T00:08:45.207Z,3.25
2019-03-04T00:11:14.719Z,3.37
2019-03-04T00:13:44.250Z,3.27
2019-03-04T00:16:13.761Z,3.10
2019-03-04T00:18:43.296Z,3.30
2019-03-04T00:21:12.839Z,2.92
2019-03-04T00:23:42.344Z,3.60
2019-03-04T00:26:12.660Z,2.80
2019-03-04T00:28:42.212Z,3.20
2019-03-04T00:31:11.790Z,3.00
2019-03-04T00:33:41.266Z,3.20
2019-03-04T00:36:10.815Z,3.22
2019-03-04T00:38:41.325Z,3.62
2019-03-04T00:41:10.853Z,2.92
2019-03-04T00:43:40.393Z,2.83
2019-03-04T00:46:09.911Z,2.20
2019-03-04T00:48:39.429Z,3.20
2019-03-04T00:51:09.030Z,3.20
2019-03-04T00:53:38.558Z,3.02
2019-03-04T00:56:08.374Z,2.90
2019-03-04T00:58:37.917Z,3.37
2019-03-04T01:01:07.428Z,2.70
2019-03-04T01:03:36.952Z,2.47
2019-03-04T01:06:06.484Z,2.60
2019-03-04T01:08:36.010Z,2.90
2019-03-04T01:11:06.730Z,2.40
2019-03-04T01:13:36.252Z,2.50
2019-03-04T01:16:05.783Z,2.70
2019-03-04T01:18:35.286Z,2.90
2019-03-04T01:21:04.893Z,2.70
2019-03-04T01:23:34.402Z,2.80
2019-03-04T01:26:05.071Z,2.77
2019-03-04T01:28:34.596Z,2.52
2019-03-04T01:31:04.127Z,2.80
2019-03-04T01:33:33.704Z,2.33
2019-03-04T01:36:03.251Z,2.50
2019-03-04T01:38:32.766Z,2.60
2019-03-04T01:41:02.293Z,2.80
2019-03-04T01:43:31.800Z,2.50
2019-03-04T01:46:01.317Z,3.10
2019-03-04T01:48:30.841Z,2.75
2019-03-04T01:51:00.364Z,2.87
2019-03-04T01:53:29.872Z,2.80
2019-03-04T01:55:59.387Z,2.60
2019-03-04T01:58:28.918Z,3.10
2019-03-04T02:00:58.522Z,2.43
2019-03-04T02:03:28.035Z,2.50
2019-03-04T02:05:57.585Z,2.60
2019-03-04T02:08:27.129Z,2.60
2019-03-04T02:10:56.644Z,2.50
2019-03-04T02:13:26.153Z,2.90
2019-03-04T02:15:55.692Z,2.90
2019-03-04T02:18:25.223Z,2.60
2019-03-04T02:20:54.760Z,2.50
2019-03-04T02:23:24.520Z,2.27
2019-03-04T02:26:26.415Z,2.58
2019-03-04T02:28:56.321Z,2.73
2019-03-04T02:31:25.857Z,2.63
2019-03-04T02:33:55.398Z,3.20
2019-03-04T02:36:25.893Z,2.60
2019-03-04T02:38:55.423Z,2.67
2019-03-04T02:41:24.956Z,2.90
2019-03-04T02:43:54.461Z,2.80
2019-03-04T02:46:23.987Z,3.10
2019-03-04T02:48:53.547Z,2.67
2019-03-04T02:51:23.067Z,3.02
2019-03-04T02:53:52.582Z,2.83
2019-03-04T02:56:22.166Z,2.40
2019-03-04T02:58:51.631Z,2.63
2019-03-04T03:01:21.161Z,2.75
2019-03-04T03:03:50.674Z,2.30
2019-03-04T03:06:20.206Z,3.00
2019-03-04T03:08:49.719Z,2.58
2019-03-04T03:11:19.256Z,2.70
2019-03-04T03:13:48.831Z,2.07
2019-03-04T03:16:18.392Z,2.70
2019-03-04T03:18:47.866Z,2.58
2019-03-04T03:21:17.421Z,2.27
2019-03-04T03:23:47.810Z,2.30
2019-03-04T03:26:17.337Z,2.33
2019-03-04T03:28:46.839Z,2.63
2019-03-04T03:31:16.387Z,2.80
2019-03-04T03:33:45.890Z,2.63
2019-03-04T03:36:15.457Z,2.53
2019-03-04T03:38:45.008Z,2.02
2019-03-04T03:41:14.539Z,2.55
2019-03-04T03:43:44.047Z,1.90
2019-03-04T03:46:13.582Z,2.07
2019-03-04T03:48:43.119Z,2.00
2019-03-04T03:51:12.644Z,2.13
2019-03-04T03:53:42.163Z,2.10
2019-03-04T03:56:11.853Z,2.00
2019-03-04T03:58:41.423Z,2.00
2019-03-04T04:01:11.053Z,2.20
2019-03-04T04:03:40.561Z,2.10
2019-03-04T04:06:10.092Z,2.20
2019-03-04T04:08:39.619Z,1.92
2019-03-04T04:11:09.164Z,1.90
2019-03-04T04:13:38.745Z,2.58
2019-03-04T04:16:08.293Z,1.75
2019-03-04T04:18:37.825Z,1.80
2019-03-04T04:21:07.516Z,1.90
2019-03-04T04:23:37.015Z,2.00
2019-03-04T04:26:20.894Z,2.00
2019-03-04T04:28:54.890Z,1.80
2019-03-04T04:31:24.420Z,1.87
2019-03-04T04:33:53.934Z,1.53
2019-03-04T04:36:24.576Z,1.97
2019-03-04T04:38:54.086Z,2.00
2019-03-04T04:41:23.596Z,1.70
2019-03-04T04:43:53.147Z,2.10
2019-03-04T04:46:51.351Z,1.87
2019-03-04T04:49:20.976Z,1.90
2019-03-04T04:51:50.543Z,1.90
2019-03-04T04:54:20.056Z,1.67
2019-03-04T04:56:49.611Z,1.50
2019-03-04T04:59:19.113Z,1.60
2019-03-04T05:01:48.622Z,1.50
2019-03-04T05:04:18.138Z,1.60
2019-03-04T05:06:47.651Z,1.20
2019-03-04T05:09:17.181Z,1.35
2019-03-04T05:11:46.688Z,1.60
2019-03-04T05:14:16.203Z,1.30
2019-03-04T05:16:45.790Z,1.70
2019-03-04T05:19:15.319Z,1.40
2019-03-04T05:21:44.906Z,1.90
2019-03-04T05:24:14.432Z,1.90
2019-03-04T05:26:43.948Z,1.70
2019-03-04T05:29:13.456Z,1.80
2019-03-04T05:31:42.955Z,1.57
2019-03-04T05:34:12.483Z,1.55
2019-03-04T05:36:42.027Z,1.70
2019-03-04T05:39:11.545Z,1.90
2019-03-04T05:41:41.072Z,1.60
2019-03-04T05:44:10.605Z,1.90
2019-03-04T05:46:40.111Z,1.90
2019-03-04T05:49:09.636Z,1.50
2019-03-04T05:51:39.134Z,1.90
2019-03-04T05:54:08.879Z,1.50
2019-03-04T05:56:38.385Z,1.40
2019-03-04T05:59:07.908Z,1.60
2019-03-04T06:01:39.562Z,1.60
2019-03-04T06:04:12.840Z,1.67
2019-03-04T06:06:51.866Z,1.52
2019-03-04T06:09:22.176Z,1.40
2019-03-04T06:11:51.700Z,1.30
2019-03-04T06:14:21.229Z,1.60
2019-03-04T06:16:50.766Z,1.30
2019-03-04T06:19:20.300Z,1.50
2019-03-04T06:21:49.867Z,1.50
2019-03-04T06:24:19.380Z,1.40
2019-03-04T06:26:48.892Z,1.60
2019-03-04T06:29:18.444Z,1.50
2019-03-04T06:31:47.991Z,1.52
2019-03-04T06:34:17.514Z,1.30
2019-03-04T06:36:47.084Z,1.40
2019-03-04T06:39:16.674Z,1.20
2019-03-04T06:41:46.203Z,1.20
2019-03-04T06:44:15.727Z,1.40
2019-03-04T06:46:45.237Z,1.23
2019-03-04T06:49:14.743Z,1.87
2019-03-04T06:51:46.259Z,1.00
2019-03-04T06:54:38.378Z,1.40
2019-03-04T06:57:14.360Z,1.10
2019-03-04T07:00:22.504Z,1.20
2019-03-04T07:02:52.037Z,1.20
2019-03-04T07:05:51.847Z,1.40
2019-03-04T07:09:00.433Z,1.40
2019-03-04T07:11:31.687Z,1.20
2019-03-04T07:14:01.199Z,1.35
2019-03-04T07:16:32.092Z,1.40
2019-03-04T07:19:07.053Z,1.47
2019-03-04T07:21:36.662Z,1.30
2019-03-04T07:24:06.261Z,1.40
2019-03-04T07:26:36.760Z,1.40
2019-03-04T07:29:07.290Z,1.42
2019-03-04T07:31:36.795Z,1.60
2019-03-04T07:34:07.153Z,1.52
2019-03-04T07:36:40.150Z,1.65
2019-03-04T07:39:10.401Z,1.60
2019-03-04T07:41:41.932Z,1.60
2019-03-04T07:44:11.424Z,1.30
2019-03-04T07:46:40.947Z,1.70
2019-03-04T07:49:10.482Z,2.90
2019-03-04T07:51:40.009Z,1.73
2019-03-04T07:54:09.557Z,1.20
2019-03-04T07:56:39.114Z,1.30
2019-03-04T07:59:08.658Z,1.00
2019-03-04T08:01:38.178Z,1.10
2019-03-04T08:04:07.678Z,0.80
2019-03-04T08:06:37.920Z,1.17
2019-03-04T08:09:43.423Z,1.00
2019-03-04T08:12:58.379Z,1.20
2019-03-04T08:15:31.411Z,1.00
2019-03-04T08:18:00.951Z,1.10
2019-03-04T08:20:30.492Z,1.00
2019-03-04T08:23:00.041Z,0.90
2019-03-04T08:25:29.578Z,1.00
2019-03-04T08:27:59.080Z,0.90
2019-03-04T08:30:28.596Z,0.90
2019-03-04T08:32:58.109Z,1.00
2019-03-04T08:35:27.662Z,0.80
2019-03-04T08:37:58.162Z,0.90
2019-03-04T08:40:27.771Z,3.10
2019-03-04T08:42:57.295Z,0.90
2019-03-04T08:45:26.909Z,0.90
2019-03-04T08:47:56.428Z,0.90
2019-03-04T08:50:25.956Z,1.10
2019-03-04T08:52:55.468Z,0.90
2019-03-04T08:55:25.008Z,0.90
2019-03-04T08:57:54.533Z,1.10
2019-03-04T09:00:26.685Z,1.00
2019-03-04T09:02:56.208Z,1.20
2019-03-04T09:05:25.812Z,1.50
2019-03-04T09:07:55.353Z,1.17
2019-03-04T09:10:26.738Z,1.30
2019-03-04T09:12:56.280Z,1.20
2019-03-04T09:15:25.873Z,1.70
2019-03-04T09:17:55.383Z,1.30
2019-03-04T09:20:25.025Z,1.70
2019-03-04T09:22:55.014Z,1.40
2019-03-04T09:25:36.172Z,1.47
2019-03-04T09:28:05.831Z,1.43
2019-03-04T09:30:35.312Z,1.40
2019-03-04T09:33:04.904Z,1.50
2019-03-04T09:35:34.466Z,1.30
2019-03-04T09:38:04.160Z,1.80
2019-03-04T09:40:33.813Z,1.43
2019-03-04T09:43:03.556Z,1.35
2019-03-04T09:45:38.872Z,1.50
2019-03-04T09:48:04.484Z,1.70
2019-03-04T09:50:34.073Z,1.60
2019-03-04T09:53:03.601Z,1.50
2019-03-04T09:55:33.123Z,1.57
2019-03-04T09:58:02.714Z,1.20
2019-03-04T10:00:37.935Z,1.70
2019-03-04T10:03:26.701Z,1.67
2019-03-04T10:06:26.109Z,1.90
2019-03-04T10:09:25.365Z,2.40
2019-03-04T10:12:54.347Z,2.00
2019-03-04T10:15:48.439Z,1.97
2019-03-04T10:18:40.215Z,2.17
2019-03-04T10:21:37.882Z,2.00
2019-03-04T10:24:38.299Z,2.65
2019-03-04T10:27:29.734Z,2.08
2019-03-04T10:31:07.848Z,2.23
2019-03-04T10:34:27.055Z,2.10
2019-03-04T10:37:46.962Z,1.70
2019-03-04T10:40:46.291Z,1.40
2019-03-04T10:43:41.215Z,2.67
2019-03-04T10:46:31.891Z,1.70
2019-03-04T10:49:01.807Z,1.70
2019-03-04T10:51:31.318Z,1.30
2019-03-04T10:54:00.851Z,2.70
2019-03-04T10:56:30.348Z,1.87
2019-03-04T10:58:59.859Z,1.70
2019-03-04T11:01:30.586Z,1.60
2019-03-04T11:04:00.396Z,1.40
2019-03-04T11:06:29.941Z,1.80
2019-03-04T11:08:59.460Z,2.10
2019-03-04T11:11:30.066Z,1.80
2019-03-04T11:13:59.781Z,1.10
2019-03-04T11:16:30.443Z,1.42
2019-03-04T11:19:00.054Z,1.70
2019-03-04T11:21:29.570Z,1.90
2019-03-04T11:23:59.183Z,1.70
2019-03-04T11:26:28.766Z,1.40
2019-03-04T11:28:58.293Z,1.47
2019-03-04T11:31:27.874Z,1.57
2019-03-04T11:33:58.371Z,1.30
2019-03-04T11:36:27.889Z,1.20
2019-03-04T11:39:01.059Z,1.20
2019-03-04T11:41:32.195Z,1.10
2019-03-04T11:44:01.715Z,1.60
2019-03-04T11:46:31.240Z,1.20
2019-03-04T11:49:00.789Z,1.20
2019-03-04T11:51:31.279Z,1.40
2019-03-04T11:54:00.803Z,1.32
2019-03-04T11:56:30.309Z,1.60
2019-03-04T11:58:59.834Z,1.30
2019-03-04T12:01:35.200Z,1.53
2019-03-04T12:04:05.327Z,1.60
2019-03-04T12:06:34.834Z,1.80
2019-03-04T12:09:09.658Z,2.00
2019-03-04T12:11:40.855Z,1.87
2019-03-04T12:14:10.365Z,1.77
2019-03-04T12:16:43.029Z,1.77
2019-03-04T12:19:12.546Z,1.80
2019-03-04T12:21:42.145Z,1.15
2019-03-04T12:24:11.667Z,1.30
2019-03-04T12:26:41.185Z,0.80
2019-03-04T12:29:10.714Z,1.10
2019-03-04T12:31:49.685Z,0.80
2019-03-04T12:34:24.927Z,0.80
2019-03-04T12:36:53.952Z,1.07
2019-03-04T12:39:23.470Z,0.70
2019-03-04T12:41:53.065Z,0.80
2019-03-04T12:44:22.580Z,0.90
2019-03-04T12:46:52.092Z,0.80
2019-03-04T12:49:21.615Z,0.70
2019-03-04T12:51:51.122Z,0.78
2019-03-04T12:54:20.633Z,0.90
2019-03-04T12:56:50.140Z,0.70
2019-03-04T12:59:19.647Z,0.60
2019-03-04T13:01:49.228Z,0.80
2019-03-04T13:04:19.736Z,0.80
2019-03-04T13:06:49.245Z,0.72
2019-03-04T13:09:18.771Z,0.72
2019-03-04T13:11:48.283Z,0.90
2019-03-04T13:14:17.818Z,0.80
2019-03-04T13:16:47.358Z,1.10
2019-03-04T13:19:17.388Z,0.80
2019-03-04T13:21:47.013Z,0.90
2019-03-04T13:24:16.566Z,0.90
2019-03-04T13:26:46.087Z,1.00
2019-03-04T13:29:15.640Z,1.20
2019-03-04T13:31:45.165Z,1.30
2019-03-04T13:34:14.710Z,1.10
2019-03-04T13:36:44.235Z,1.20
2019-03-04T13:39:13.773Z,1.50
2019-03-04T13:41:43.306Z,1.30
2019-03-04T13:44:12.856Z,1.40
2019-03-04T13:46:42.367Z,1.50
2019-03-04T13:49:11.895Z,1.40
2019-03-04T13:51:41.407Z,1.50
2019-03-04T13:54:10.984Z,1.70
2019-03-04T13:56:40.508Z,1.80
2019-03-04T13:59:10.008Z,1.80
2019-03-04T14:01:39.522Z,1.87
2019-03-04T14:04:09.051Z,2.13
2019-03-04T14:06:38.567Z,2.10
2019-03-04T14:09:09.471Z,2.05
2019-03-04T14:11:40.101Z,2.10
2019-03-04T14:14:09.610Z,1.70
2019-03-04T14:16:39.978Z,1.70
2019-03-04T14:19:09.522Z,2.20
2019-03-04T14:21:39.037Z,1.90
2019-03-04T14:24:08.548Z,1.80
2019-03-04T14:26:39.145Z,2.00
2019-03-04T14:29:08.681Z,1.98
2019-03-04T14:31:38.665Z,1.70
2019-03-04T14:34:08.179Z,1.60
2019-03-04T14:36:37.716Z,1.70
2019-03-04T14:39:11.314Z,1.77
2019-03-04T14:41:40.841Z,1.62
2019-03-04T14:44:10.365Z,2.10
2019-03-04T14:46:39.936Z,1.90
2019-03-04T14:49:09.464Z,2.10
2019-03-04T14:51:38.971Z,2.00
2019-03-04T14:54:08.640Z,2.30
2019-03-04T14:56:39.260Z,2.20
2019-03-04T14:59:10.796Z,2.20
2019-03-04T15:01:40.036Z,1.92
2019-03-04T15:04:09.540Z,2.12
2019-03-04T15:06:39.062Z,2.02
2019-03-04T15:09:10.605Z,2.08
2019-03-04T15:11:40.121Z,2.17
2019-03-04T15:14:09.629Z,2.60
2019-03-04T15:16:39.147Z,2.40
2019-03-04T15:19:08.658Z,2.70
2019-03-04T15:21:38.179Z,2.00
2019-03-04T15:24:07.758Z,2.10
2019-03-04T15:26:41.992Z,2.30
2019-03-04T15:29:08.510Z,2.35
2019-03-04T15:31:38.029Z,2.00
2019-03-04T15:34:07.537Z,2.73
2019-03-04T15:36:40.575Z,1.80
2019-03-04T15:39:22.576Z,2.50
2019-03-04T15:41:46.773Z,2.50
2019-03-04T15:44:16.272Z,2.35
2019-03-04T15:46:45.791Z,2.10
2019-03-04T15:49:15.308Z,2.50
2019-03-04T15:51:44.832Z,2.20
2019-03-04T15:54:14.415Z,4.08
2019-03-04T15:56:43.942Z,2.77
2019-03-04T15:59:13.459Z,3.10
2019-03-04T16:01:43.017Z,3.10
2019-03-04T16:04:12.550Z,2.60
2019-03-04T16:06:42.249Z,3.30
2019-03-04T16:09:14.863Z,4.15
2019-03-04T16:11:44.380Z,2.55
2019-03-04T16:14:13.963Z,2.40
2019-03-04T16:16:43.495Z,2.80
2019-03-04T16:19:13.010Z,2.80
2019-03-04T16:21:42.554Z,5.72
2019-03-04T16:24:12.076Z,3.75
2019-03-04T16:26:41.612Z,2.90
2019-03-04T16:29:11.146Z,2.75
2019-03-04T16:31:40.691Z,3.40
2019-03-04T16:34:10.192Z,2.98
2019-03-04T16:36:39.725Z,2.58
2019-03-04T16:39:09.228Z,2.80
2019-03-04T16:41:38.928Z,2.52
2019-03-04T16:44:08.442Z,2.70
2019-03-04T16:46:39.350Z,2.90
2019-03-04T16:49:08.868Z,3.00
2019-03-04T16:51:38.383Z,2.95
2019-03-04T16:54:07.897Z,2.62
2019-03-04T16:56:39.754Z,2.65
2019-03-04T16:59:09.261Z,3.20
2019-03-04T17:01:38.786Z,3.12
2019-03-04T17:04:08.333Z,3.05
2019-03-04T17:06:37.963Z,3.12
2019-03-04T17:09:16.227Z,2.83
2019-03-04T17:11:45.835Z,3.20
2019-03-04T17:14:15.361Z,3.03
2019-03-04T17:16:44.902Z,3.27
2019-03-04T17:19:14.424Z,2.62
2019-03-04T17:21:43.946Z,4.30
2019-03-04T17:24:13.471Z,6.30
2019-03-04T17:26:43.001Z,3.10
2019-03-04T17:29:12.522Z,3.40
2019-03-04T17:31:42.081Z,2.97
2019-03-04T17:34:11.604Z,3.00
2019-03-04T17:36:42.309Z,4.35
2019-03-04T17:39:12.224Z,3.00
2019-03-04T17:41:42.720Z,3.05
2019-03-04T17:44:12.259Z,3.50
2019-03-04T17:46:41.851Z,2.90
2019-03-04T17:49:11.385Z,2.70
2019-03-04T17:51:41.023Z,2.90
2019-03-04T17:54:10.580Z,2.80
2019-03-04T17:56:40.149Z,2.80
2019-03-04T17:59:09.787Z,2.93
2019-03-04T18:01:39.446Z,3.08
2019-03-04T18:04:09.021Z,3.00
2019-03-04T18:06:38.707Z,3.30
2019-03-04T18:09:08.353Z,3.20
2019-03-04T18:11:38.859Z,3.45
2019-03-04T18:14:08.876Z,3.40
2019-03-04T18:16:39.388Z,3.70
2019-03-04T18:19:08.905Z,3.00
2019-03-04T18:21:38.418Z,4.20
2019-03-04T18:24:07.957Z,3.00
2019-03-04T18:26:48.479Z,3.27
2019-03-04T18:29:55.527Z,3.30
2019-03-04T18:32:51.300Z,3.20
2019-03-04T18:35:52.249Z,2.97
2019-03-04T18:39:08.849Z,3.37
2019-03-04T18:42:14.304Z,3.17
2019-03-04T18:45:12.382Z,2.77
2019-03-04T18:47:55.393Z,3.40
2019-03-04T18:50:25.070Z,2.80
2019-03-04T18:52:54.604Z,3.43
2019-03-04T18:55:24.116Z,3.27
2019-03-04T18:57:53.625Z,2.90
2019-03-04T19:00:24.452Z,3.33
2019-03-04T19:02:54.443Z,2.98
2019-03-04T19:05:24.177Z,2.80
2019-03-04T19:07:53.783Z,2.73
2019-03-04T19:10:23.358Z,2.97
2019-03-04T19:12:52.879Z,2.80
2019-03-04T19:15:22.454Z,2.90
2019-03-04T19:17:52.059Z,3.00
2019-03-04T19:20:22.466Z,3.00
2019-03-04T19:22:51.981Z,3.03
2019-03-04T19:25:21.494Z,2.80
2019-03-04T19:27:51.016Z,2.70
2019-03-04T19:30:20.556Z,3.56
2019-03-04T19:32:54.455Z,3.50
2019-03-04T19:35:24.005Z,3.20
2019-03-04T19:37:53.518Z,3.27
2019-03-04T19:40:23.037Z,3.40
2019-03-04T19:42:52.542Z,3.63
2019-03-04T19:45:22.131Z,3.40
2019-03-04T19:47:51.741Z,3.80
2019-03-04T19:50:21.274Z,3.00
2019-03-04T19:52:50.792Z,3.23
2019-03-04T19:55:21.268Z,3.67
2019-03-04T19:57:50.786Z,3.10
2019-03-04T20:00:20.678Z,3.17
2019-03-04T20:02:51.003Z,3.40
2019-03-04T20:05:23.048Z,3.58
2019-03-04T20:07:52.681Z,2.90
2019-03-04T20:10:23.282Z,3.50
2019-03-04T20:12:52.873Z,2.98
2019-03-04T20:15:22.898Z,3.10
2019-03-04T20:17:52.547Z,3.33
2019-03-04T20:20:23.157Z,2.92
2019-03-04T20:22:52.694Z,3.20
2019-03-04T20:25:22.525Z,2.98
2019-03-04T20:27:52.133Z,2.53
2019-03-04T20:30:21.843Z,2.83
2019-03-04T20:32:51.434Z,2.27
2019-03-04T20:35:21.385Z,3.10
2019-03-04T20:37:52.266Z,2.40
2019-03-04T20:40:21.791Z,2.70
2019-03-04T20:42:51.386Z,2.63
2019-03-04T20:45:22.398Z,3.15
2019-03-04T20:47:52.994Z,2.50
2019-03-04T20:50:22.556Z,2.90
2019-03-04T20:52:52.189Z,2.50
2019-03-04T20:55:21.870Z,2.33
2019-03-04T20:57:52.472Z,2.50
2019-03-04T21:00:27.104Z,2.50
2019-03-04T21:02:56.845Z,2.70
2019-03-04T21:05:27.555Z,2.40
2019-03-04T21:07:57.457Z,3.10
2019-03-04T21:10:28.119Z,2.10
2019-03-04T21:13:01.964Z,2.00
2019-03-04T21:15:31.589Z,2.33
2019-03-04T21:18:01.260Z,2.17
2019-03-04T21:20:31.897Z,2.10
2019-03-04T21:23:02.358Z,2.45
2019-03-04T21:25:40.828Z,3.10
2019-03-04T21:28:14.785Z,2.60
2019-03-04T21:31:05.639Z,3.20
2019-03-04T21:33:49.036Z,3.10
2019-03-04T21:36:24.927Z,3.47
2019-03-04T21:38:57.586Z,2.63
2019-03-04T21:41:49.832Z,2.63
2019-03-04T21:45:00.613Z,2.80
2019-03-04T21:47:33.799Z,2.50
2019-03-04T21:50:03.440Z,2.80
2019-03-04T21:52:47.039Z,3.00
2019-03-04T21:55:47.583Z,2.30
2019-03-04T21:58:17.169Z,2.80
2019-03-04T22:00:50.151Z,2.60
2019-03-04T22:03:25.268Z,2.30
2019-03-04T22:05:55.401Z,2.50
2019-03-04T22:08:26.021Z,2.42
2019-03-04T22:10:55.585Z,2.55
2019-03-04T22:13:25.272Z,2.40
2019-03-04T22:15:54.916Z,2.60
2019-03-04T22:18:24.561Z,2.87
2019-03-04T22:20:54.070Z,2.90
2019-03-04T22:23:23.676Z,2.85
2019-03-04T22:26:01.545Z,2.58
2019-03-04T22:28:24.463Z,2.90
2019-03-04T22:30:54.067Z,3.10
2019-03-04T22:33:23.672Z,2.90
2019-03-04T22:35:53.194Z,3.57
2019-03-04T22:38:22.707Z,3.00
2019-03-04T22:40:52.285Z,3.15
2019-03-04T22:43:21.800Z,3.50
2019-03-04T22:45:51.316Z,3.37
2019-03-04T22:48:21.908Z,2.20
2019-03-04T22:50:51.391Z,3.13
2019-03-04T22:53:20.918Z,3.05
2019-03-04T22:55:50.420Z,3.02
2019-03-04T22:58:28.141Z,3.15
2019-03-04T23:01:36.856Z,2.70
2019-03-04T23:04:15.097Z,2.60
2019-03-04T23:06:50.217Z,2.92
2019-03-04T23:09:20.415Z,3.10
2019-03-04T23:11:55.471Z,2.80
2019-03-04T23:14:27.643Z,3.57
2019-03-04T23:16:59.289Z,3.22
2019-03-04T23:19:28.434Z,3.80
2019-03-04T23:21:57.956Z,3.50
2019-03-04T23:24:27.507Z,4.10
2019-03-04T23:26:57.025Z,4.15
2019-03-04T23:29:26.530Z,4.75
2019-03-04T23:31:56.114Z,6.75
2019-03-04T23:34:25.627Z,6.62
2019-03-04T23:36:56.113Z,6.72
2019-03-04T23:39:25.717Z,8.40
2019-03-04T23:41:55.215Z,8.70
2019-03-04T23:44:24.731Z,8.55
2019-03-04T23:46:54.279Z,9.65
2019-03-04T23:49:23.742Z,9.05
2019-03-04T23:51:53.247Z,9.88
2019-03-04T23:54:22.765Z,10.68
2019-03-04T23:56:52.266Z,10.30
2019-03-04T23:59:21.790Z,9.70
